Time;durP1;ratioP1;P1;durP2;ratioP2;P2;SDS_P1;SDS_P2;PMS_P1;PMS_P2;Temp;Humidity;BMP_temperature;BMP_pressure;BME280_temperature;BME280_humidity;BME280_pressure;Samples;Min_cycle;Max_cycle;Signal;HPM_P1;HPM_P2
2021/11/01 18:51:12;;;;;;;97.63;49.50;;;;;;;;;;5066900;28;20040;-65
2021/11/01 18:53:48;;;;;;;142.52;68.50;;;;;;;;;;5076146;28;20041;-65
2021/11/01 18:56:14;;;;;;;152.98;70.50;;;;;;;;;;5072642;28;20028;-65
2021/11/01 18:58:42;;;;;;;136.50;65.78;;;;;;;;;;5072331;28;20166;-65
2021/11/01 19:01:09;;;;;;;135.90;65.88;;;;;;;;;;5072609;28;20127;-65
2021/11/01 19:03:45;;;;;;;160.55;84.10;;;;;;;;;;5054102;28;20414;-65
2021/11/01 19:08:49;;;;;;;290.05;121.43;;;;;;;;;;5072313;28;20055;-65
2021/11/01 20:03:42;;;;;;;123.13;61.53;;;;;;;;;;5075141;28;20028;-69
2021/11/01 21:24:29;;;;;;;107.28;55.75;;;;;;;;;;5074614;28;20154;-69
2021/11/01 21:26:22;;;;;;;164.98;134.80;;;;;;;;;;5043558;28;20456;-68
2021/11/01 21:28:50;;;;;;;83.22;62.00;;;;;;;;;;5041045;28;20025;-68
2021/11/01 21:31:17;;;;;;;63.33;40.00;;;;;;;;;;5049069;28;20025;-68
2021/11/01 21:33:50;;;;;;;61.13;34.70;;;;;;;;;;5046600;28;20029;-69
2021/11/01 21:36:23;;;;;;;60.63;34.53;;;;;;;;;;5038699;28;20405;-69
2021/11/01 21:38:53;;;;;;;62.05;37.85;;;;;;;;;;5036277;28;20025;-70
2021/11/01 21:41:19;;;;;;;59.13;33.65;;;;;;;;;;5033392;28;20477;-70
2021/11/01 21:43:45;;;;;;;60.50;33.55;;;;;;;;;;5031994;28;20045;-70
2021/11/01 21:46:10;;;;;;;63.45;36.30;;;;;;;;;;5033463;28;20432;-70
2021/11/01 21:48:36;;;;;;;61.47;34.97;;;;;;;;;;5033253;28;20080;-68
2021/11/01 21:51:02;;;;;;;55.67;33.15;;;;;;;;;;5033166;28;20469;-67
2021/11/01 21:53:31;;;;;;;48.72;31.42;;;;;;;;;;5050073;28;20048;-68
2021/11/01 21:55:57;;;;;;;52.58;31.92;;;;;;;;;;5052973;28;20083;-68
2021/11/01 22:01:22;;;;;;;82.38;42.90;;;;;;;;;;5035149;28;20076;-68
2021/11/01 22:17:40;;;;;;;47.65;29.15;;;;;;;;;;5052881;28;20029;-68
2021/11/01 22:20:13;;;;;;;46.95;28.42;;;;;;;;;;5053111;28;20490;-69
2021/11/01 22:43:14;;;;;;;52.67;29.98;;;;;;;;;;5038249;28;20013;-65
2021/11/01 22:56:38;;;;;;;37.70;23.48;;;;;;;;;;5056293;28;20071;-65
2021/11/01 22:59:04;;;;;;;40.00;23.92;;;;;;;;;;5056149;28;20033;-65
2021/11/01 23:01:38;;;;;;;41.25;25.38;;;;;;;;;;5021662;28;20021;-64
2021/11/01 23:33:55;;;;;;;39.97;23.77;;;;;;;;;;5055439;28;20044;-64
2021/11/01 23:36:22;;;;;;;42.40;24.25;;;;;;;;;;5021195;28;20499;-64
2021/11/01 23:38:47;;;;;;;40.17;23.92;;;;;;;;;;5055154;28;20468;-64
2021/11/01 23:41:13;;;;;;;39.42;23.48;;;;;;;;;;5055369;28;20078;-64
2021/11/01 23:43:38;;;;;;;39.35;23.92;;;;;;;;;;5037319;28;20021;-69
2021/11/01 23:46:04;;;;;;;40.45;24.00;;;;;;;;;;5055182;28;20017;-71
2021/11/01 23:48:30;;;;;;;37.53;22.77;;;;;;;;;;5055473;28;20017;-70
2021/11/01 23:50:56;;;;;;;41.40;23.73;;;;;;;;;;5055279;28;20029;-70
2021/11/01 23:53:34;;;;;;;39.53;23.38;;;;;;;;;;5054782;28;20044;-69
2021/11/01 23:56:00;;;;;;;38.40;24.08;;;;;;;;;;5055099;28;20040;-71
2021/11/01 23:58:26;;;;;;;39.97;24.60;;;;;;;;;;5054964;28;20437;-70
